createdAt,value
2023-04-05T00:01:58.688Z,95114.78
2023-04-05T00:04:25.695Z,95113.59
2023-04-05T00:06:53.319Z,95087.00
2023-04-05T00:09:21.184Z,95060.41
2023-04-05T00:11:48.749Z,95050.88
2023-04-05T00:14:15.781Z,95089.72
2023-04-05T00:16:43.172Z,95091.19
2023-04-05T00:19:13.028Z,95072.84
2023-04-05T00:21:40.695Z,95044.00
2023-04-05T00:24:10.031Z,95041.53
2023-04-05T00:26:36.811Z,95023.88
2023-04-05T00:29:03.900Z,95063.19
2023-04-05T00:31:31.039Z,95043.69
2023-04-05T00:33:58.246Z,95025.97
2023-04-05T00:36:26.386Z,95016.91
2023-04-05T00:38:55.538Z,94994.06
2023-04-05T00:41:22.520Z,94997.84
2023-04-05T00:43:49.630Z,95036.69
2023-04-05T00:46:17.017Z,95045.13
2023-04-05T00:48:44.244Z,95029.59
2023-04-05T00:51:11.818Z,95034.16
2023-04-05T00:53:40.149Z,95040.28
2023-04-05T00:56:08.522Z,95008.69
2023-04-05T00:58:37.068Z,94990.66
2023-04-05T01:01:14.073Z,95003.03
2023-04-05T01:03:54.460Z,95003.50
2023-04-05T01:06:34.428Z,95009.84
2023-04-05T01:09:06.576Z,95004.19
2023-04-05T01:11:35.509Z,95005.97
2023-04-05T01:14:02.638Z,94976.34
2023-04-05T01:16:29.877Z,94978.78
2023-04-05T01:18:57.108Z,95008.78
2023-04-05T01:21:39.516Z,94994.19
2023-04-05T01:24:32.440Z,95020.28
2023-04-05T01:27:05.206Z,94998.09
2023-04-05T01:29:59.570Z,95019.03
2023-04-05T01:32:29.256Z,94974.72
2023-04-05T01:35:45.055Z,94990.13
2023-04-05T01:38:18.171Z,94983.00
2023-04-05T01:40:45.635Z,94987.75
2023-04-05T01:43:14.356Z,94985.25
2023-04-05T01:45:42.516Z,94981.44
2023-04-05T01:48:10.872Z,94993.22
2023-04-05T01:50:37.993Z,94967.47
2023-04-05T01:53:06.821Z,94988.03
2023-04-05T01:55:33.738Z,94988.22
2023-04-05T01:58:00.743Z,94984.66
2023-04-05T02:00:28.252Z,94994.78
2023-04-05T02:02:55.744Z,94997.38
2023-04-05T02:05:22.596Z,94968.97
2023-04-05T02:07:49.586Z,94970.06
2023-04-05T02:10:16.584Z,94956.81
2023-04-05T02:12:43.637Z,94971.75
2023-04-05T02:15:10.944Z,94969.88
2023-04-05T02:17:46.224Z,94959.19
2023-04-05T02:20:14.716Z,94955.91
2023-04-05T02:22:45.183Z,94964.00
2023-04-05T02:25:13.286Z,94965.13
2023-04-05T02:27:41.404Z,94979.03
2023-04-05T02:30:08.941Z,94985.25
2023-04-05T02:32:36.308Z,94975.41
2023-04-05T02:35:03.333Z,94981.19
2023-04-05T02:37:30.499Z,94978.09
2023-04-05T02:39:57.241Z,94965.69
2023-04-05T02:42:24.099Z,94965.72
2023-04-05T02:44:52.325Z,94979.84
2023-04-05T02:47:23.126Z,94983.31
2023-04-05T02:49:57.640Z,94949.06
2023-04-05T02:52:26.756Z,94946.03
2023-04-05T02:54:53.684Z,94955.56
2023-04-05T02:57:26.384Z,94971.88
2023-04-05T03:00:00.783Z,94969.34
2023-04-05T03:02:30.096Z,94965.44
2023-04-05T03:04:57.407Z,94965.88
2023-04-05T03:07:25.806Z,94954.78
2023-04-05T03:09:54.265Z,94970.41
2023-04-05T03:12:21.647Z,94973.84
2023-04-05T03:14:49.324Z,94979.63
2023-04-05T03:17:20.957Z,94979.72
2023-04-05T03:19:57.460Z,94973.53
2023-04-05T03:22:27.339Z,94979.34
2023-04-05T03:24:57.432Z,94973.19
2023-04-05T03:27:24.661Z,94985.44
2023-04-05T03:30:05.045Z,94984.50
2023-04-05T03:32:36.520Z,94972.84
2023-04-05T03:35:13.295Z,94972.38
2023-04-05T03:37:44.440Z,94969.84
2023-04-05T03:40:13.147Z,94942.50
2023-04-05T03:42:39.926Z,94954.28
2023-04-05T03:45:07.700Z,94952.94
2023-04-05T03:47:35.079Z,94951.50
2023-04-05T03:50:06.151Z,94946.78
2023-04-05T03:52:32.923Z,94920.66
2023-04-05T03:55:01.252Z,94946.66
2023-04-05T03:57:31.244Z,94917.44
2023-04-05T04:00:14.517Z,94920.56
2023-04-05T04:02:46.281Z,94926.88
2023-04-05T04:05:18.251Z,94931.28
2023-04-05T04:07:49.188Z,94923.91
2023-04-05T04:10:20.397Z,94930.41
2023-04-05T04:12:51.420Z,94948.47
2023-04-05T04:15:22.425Z,94957.41
2023-04-05T04:18:08.684Z,94958.25
2023-04-05T04:20:47.922Z,94916.88
2023-04-05T04:23:34.951Z,94940.63
2023-04-05T04:26:37.536Z,94946.59
2023-04-05T04:29:19.485Z,94932.75
2023-04-05T04:31:58.526Z,94946.28
2023-04-05T04:34:56.440Z,94935.13
2023-04-05T04:37:38.872Z,94926.47
2023-04-05T04:40:39.214Z,94942.78
2023-04-05T04:43:27.616Z,94956.41
2023-04-05T04:46:43.361Z,94939.94
2023-04-05T04:49:28.382Z,94958.84
2023-04-05T04:51:55.510Z,94965.97
2023-04-05T04:54:23.651Z,94946.50
2023-04-05T04:56:50.561Z,94945.75
2023-04-05T04:59:17.403Z,94921.00
2023-04-05T05:01:47.257Z,94925.59
2023-04-05T05:04:14.215Z,94955.09
2023-04-05T05:06:42.215Z,94945.38
2023-04-05T05:09:09.022Z,94896.59
2023-04-05T05:11:45.034Z,94906.97
2023-04-05T05:14:13.122Z,94905.81
2023-04-05T05:16:39.898Z,94907.19
2023-04-05T05:19:07.117Z,94906.38
2023-04-05T05:21:50.562Z,94900.00
2023-04-05T05:24:17.416Z,94913.94
2023-04-05T05:26:44.309Z,94940.44
2023-04-05T05:29:11.891Z,94937.84
2023-04-05T05:31:42.984Z,94916.16
2023-04-05T05:34:09.836Z,94934.06
2023-04-05T05:36:38.640Z,94954.19
2023-04-05T05:39:06.058Z,94961.59
2023-04-05T05:41:32.864Z,94956.50
2023-04-05T05:43:59.720Z,94980.25
2023-04-05T05:46:27.256Z,95002.88
2023-04-05T05:48:54.094Z,94965.97
2023-04-05T05:51:20.881Z,94939.78
2023-04-05T05:53:48.141Z,94942.75
2023-04-05T05:56:14.920Z,94960.69
2023-04-05T05:58:42.313Z,94968.59
2023-04-05T06:01:12.550Z,94980.13
2023-04-05T06:03:39.517Z,94957.81
2023-04-05T06:06:08.570Z,94979.31
2023-04-05T06:08:35.431Z,94983.38
2023-04-05T06:11:02.520Z,94973.53
2023-04-05T06:13:29.374Z,94987.31
2023-04-05T06:15:56.188Z,94974.75
2023-04-05T06:18:23.856Z,94992.56
2023-04-05T06:20:50.685Z,94978.94
2023-04-05T06:23:17.545Z,94997.88
2023-04-05T06:25:44.537Z,94986.66
2023-04-05T06:28:11.272Z,95006.31
2023-04-05T06:30:39.335Z,94998.50
2023-04-05T06:33:06.408Z,95014.41
2023-04-05T06:35:33.267Z,95021.19
2023-04-05T06:38:00.227Z,95027.53
2023-04-05T06:40:27.611Z,94991.34
2023-04-05T06:42:54.815Z,95016.97
2023-04-05T06:45:26.710Z,95014.34
2023-04-05T06:47:54.237Z,94998.28
2023-04-05T06:50:21.308Z,95015.16
2023-04-05T06:52:48.056Z,95006.34
2023-04-05T06:55:14.877Z,95029.47
2023-04-05T06:57:41.635Z,95023.25
2023-04-05T07:00:11.681Z,95010.97
2023-04-05T07:02:39.575Z,95020.28
2023-04-05T07:05:06.734Z,95016.31
2023-04-05T07:07:33.523Z,95032.72
2023-04-05T07:10:00.583Z,95041.28
2023-04-05T07:12:27.935Z,95030.38
2023-04-05T07:14:55.043Z,95046.41
2023-04-05T07:17:22.126Z,95036.03
2023-04-05T07:19:49.026Z,95044.41
2023-04-05T07:22:15.731Z,95034.31
2023-04-05T07:24:44.620Z,95041.19
2023-04-05T07:27:11.614Z,95044.06
2023-04-05T07:29:40.787Z,95061.28
2023-04-05T07:32:08.028Z,95056.25
2023-04-05T07:34:35.925Z,95047.78
2023-04-05T07:37:06.819Z,95059.50
2023-04-05T07:39:33.884Z,95070.69
2023-04-05T07:42:00.614Z,95068.47
2023-04-05T07:44:27.665Z,95059.78
2023-04-05T07:46:54.703Z,95051.53
2023-04-05T07:49:28.390Z,95074.63
2023-04-05T07:51:56.562Z,95086.94
2023-04-05T07:54:24.093Z,95099.19
2023-04-05T07:56:52.299Z,95083.94
2023-04-05T07:59:19.154Z,95084.84
2023-04-05T08:01:46.041Z,95075.03
2023-04-05T08:04:13.371Z,95113.53
2023-04-05T08:06:40.241Z,95122.75
2023-04-05T08:09:09.045Z,95099.75
2023-04-05T08:11:36.084Z,95105.22
2023-04-05T08:14:03.253Z,95096.34
2023-04-05T08:16:30.145Z,95108.75
2023-04-05T08:18:57.025Z,95100.03
2023-04-05T08:21:23.854Z,95120.63
2023-04-05T08:23:50.868Z,95125.50
2023-04-05T08:26:18.171Z,95129.50
2023-04-05T08:28:45.225Z,95119.94
2023-04-05T08:31:13.742Z,95144.47
2023-04-05T08:33:41.014Z,95146.97
2023-04-05T08:36:09.254Z,95144.94
2023-04-05T08:38:36.877Z,95139.72
2023-04-05T08:41:23.097Z,95156.13
2023-04-05T08:43:52.666Z,95146.44
2023-04-05T08:46:21.235Z,95158.69
2023-04-05T08:48:48.317Z,95180.94
2023-04-05T08:51:21.975Z,95182.94
2023-04-05T08:53:49.456Z,95176.28
2023-04-05T08:56:22.458Z,95171.66
2023-04-05T08:59:00.957Z,95182.09
2023-04-05T09:01:31.063Z,95166.31
2023-04-05T09:04:01.715Z,95194.19
2023-04-05T09:06:29.220Z,95181.78
2023-04-05T09:08:59.185Z,95195.06
2023-04-05T09:11:26.320Z,95172.94
2023-04-05T09:13:53.251Z,95188.00
2023-04-05T09:16:20.641Z,95183.69
2023-04-05T09:18:47.621Z,95186.13
2023-04-05T09:21:16.345Z,95204.66
2023-04-05T09:23:56.410Z,95197.28
2023-04-05T09:26:25.295Z,95204.84
2023-04-05T09:28:56.762Z,95219.38
2023-04-05T09:31:33.097Z,95214.84
2023-04-05T09:34:03.399Z,95215.34
2023-04-05T09:36:33.477Z,95225.94
2023-04-05T09:39:06.823Z,95243.84
2023-04-05T09:41:35.289Z,95224.50
2023-04-05T09:44:02.900Z,95223.47
2023-04-05T09:46:38.456Z,95223.44
2023-04-05T09:49:08.019Z,95224.53
2023-04-05T09:51:36.590Z,95219.13
2023-04-05T09:54:10.795Z,95229.13
2023-04-05T09:56:40.033Z,95208.44
2023-04-05T09:59:10.623Z,95225.13
2023-04-05T10:01:41.214Z,95242.00
2023-04-05T10:04:08.941Z,95244.75
2023-04-05T10:06:39.771Z,95222.66
2023-04-05T10:09:08.396Z,95265.59
2023-04-05T10:11:37.197Z,95230.38
2023-04-05T10:14:06.026Z,95210.25
2023-04-05T10:16:37.326Z,95210.03
2023-04-05T10:19:11.862Z,95203.03
2023-04-05T10:21:44.218Z,95191.72
2023-04-05T10:24:17.444Z,95195.94
2023-04-05T10:27:04.504Z,95236.09
2023-04-05T10:29:45.667Z,95224.88
2023-04-05T10:32:31.689Z,95240.34
2023-04-05T10:35:20.565Z,95239.66
2023-04-05T10:37:59.757Z,95237.38
2023-04-05T10:40:32.149Z,95271.78
2023-04-05T10:43:00.886Z,95275.41
2023-04-05T10:45:28.753Z,95230.06
2023-04-05T10:48:31.357Z,95232.41
2023-04-05T10:50:58.832Z,95231.94
2023-04-05T10:53:27.314Z,95260.06
2023-04-05T10:55:56.070Z,95223.53
2023-04-05T10:58:23.756Z,95176.28
2023-04-05T11:00:52.295Z,95213.72
2023-04-05T11:03:47.938Z,95247.22
2023-04-05T11:06:22.896Z,95257.22
2023-04-05T11:08:55.055Z,95247.09
2023-04-05T11:11:24.086Z,95254.41
2023-04-05T11:13:56.041Z,95243.78
2023-04-05T11:16:24.544Z,95230.63
2023-04-05T11:18:52.475Z,95216.22
2023-04-05T11:21:26.336Z,95252.03
2023-04-05T11:24:12.118Z,95248.50
2023-04-05T11:26:45.424Z,95248.59
2023-04-05T11:29:12.178Z,95252.13
2023-04-05T11:32:00.495Z,95266.84
2023-04-05T11:34:27.231Z,95248.72
2023-04-05T11:36:54.273Z,95273.31
2023-04-05T11:39:23.882Z,95300.53
2023-04-05T11:42:03.748Z,95286.13
2023-04-05T11:44:41.330Z,95236.78
2023-04-05T11:47:09.420Z,95234.00
2023-04-05T11:49:36.451Z,95287.28
2023-04-05T11:52:20.856Z,95239.41
2023-04-05T11:54:49.130Z,95272.44
2023-04-05T11:57:23.220Z,95255.22
2023-04-05T11:59:52.227Z,95259.53
2023-04-05T12:02:20.008Z,95259.28
2023-04-05T12:04:55.578Z,95251.00
2023-04-05T12:07:26.389Z,95248.13
2023-04-05T12:10:20.023Z,95242.59
2023-04-05T12:12:49.296Z,95285.03
2023-04-05T12:15:19.464Z,95251.06
2023-04-05T12:17:50.950Z,95286.44
2023-04-05T12:20:23.883Z,95270.88
2023-04-05T12:22:53.337Z,95272.47
2023-04-05T12:25:21.053Z,95263.25
2023-04-05T12:27:48.215Z,95247.59
2023-04-05T12:30:19.626Z,95222.56
2023-04-05T12:32:53.294Z,95229.16
2023-04-05T12:35:32.667Z,95252.09
2023-04-05T12:38:02.295Z,95230.63
2023-04-05T12:40:31.091Z,95226.53
2023-04-05T12:43:07.666Z,95260.72
2023-04-05T12:45:40.607Z,95247.53
2023-04-05T12:48:34.853Z,95259.97
2023-04-05T12:51:05.083Z,95273.78
2023-04-05T12:53:33.489Z,95279.22
2023-04-05T12:56:01.645Z,95244.22
2023-04-05T12:58:37.024Z,95219.78
2023-04-05T13:01:04.660Z,95235.66
2023-04-05T13:03:32.615Z,95240.28
2023-04-05T13:05:59.711Z,95221.41
2023-04-05T13:08:27.745Z,95224.13
2023-04-05T13:10:57.208Z,95212.41
2023-04-05T13:13:25.419Z,95203.75
2023-04-05T13:15:52.550Z,95227.69
2023-04-05T13:18:20.046Z,95212.88
2023-04-05T13:20:47.574Z,95204.75
2023-04-05T13:23:14.409Z,95220.41
2023-04-05T13:25:43.509Z,95236.66
2023-04-05T13:28:10.732Z,95199.88
2023-04-05T13:30:37.993Z,95226.66
2023-04-05T13:33:05.238Z,95188.59
2023-04-05T13:35:33.156Z,95178.13
2023-04-05T13:38:04.226Z,95168.47
2023-04-05T13:40:32.660Z,95166.94
2023-04-05T13:42:59.952Z,95163.84
2023-04-05T13:45:28.134Z,95174.72
2023-04-05T13:47:55.656Z,95153.13
2023-04-05T13:50:22.603Z,95175.69
2023-04-05T13:52:49.370Z,95161.06
2023-04-05T13:55:16.817Z,95182.03
2023-04-05T13:57:43.630Z,95191.44
2023-04-05T14:00:11.036Z,95174.34
2023-04-05T14:02:41.172Z,95169.66
2023-04-05T14:05:08.966Z,95174.72
2023-04-05T14:07:36.115Z,95168.06
2023-04-05T14:10:03.901Z,95154.44
2023-04-05T14:12:32.135Z,95150.59
2023-04-05T14:15:00.363Z,95146.03
2023-04-05T14:17:27.347Z,95142.38
2023-04-05T14:19:54.222Z,95128.53
2023-04-05T14:22:21.710Z,95136.53
2023-04-05T14:24:48.812Z,95152.19
2023-04-05T14:27:15.649Z,95121.88
2023-04-05T14:29:44.212Z,95130.56
2023-04-05T14:32:11.184Z,95146.56
2023-04-05T14:34:38.051Z,95145.06
2023-04-05T14:37:06.757Z,95135.13
2023-04-05T14:39:33.792Z,95130.09
2023-04-05T14:42:00.971Z,95109.78
2023-04-05T14:44:28.032Z,95123.50
2023-04-05T14:46:54.890Z,95110.41
2023-04-05T14:49:22.033Z,95109.56
2023-04-05T14:51:48.968Z,95109.22
2023-04-05T14:54:15.977Z,95095.38
2023-04-05T14:56:42.915Z,95080.09
2023-04-05T14:59:09.850Z,95087.84
2023-04-05T15:01:37.804Z,95090.47
2023-04-05T15:04:04.747Z,95072.22
2023-04-05T15:06:32.372Z,95090.38
2023-04-05T15:08:59.664Z,95075.16
2023-04-05T15:11:27.199Z,95071.16
2023-04-05T15:13:54.035Z,95084.25
2023-04-05T15:16:21.024Z,95097.94
2023-04-05T15:18:48.666Z,95091.78
2023-04-05T15:21:15.690Z,95103.50
2023-04-05T15:23:42.828Z,95100.47
2023-04-05T15:26:09.645Z,95111.28
2023-04-05T15:28:36.856Z,95114.97
2023-04-05T15:31:05.540Z,95108.25
2023-04-05T15:33:32.788Z,95127.13
2023-04-05T15:35:59.747Z,95088.53
2023-04-05T15:38:27.631Z,95095.31
2023-04-05T15:40:54.643Z,95080.38
2023-04-05T15:43:22.371Z,95086.84
2023-04-05T15:45:49.380Z,95072.53
2023-04-05T15:48:16.467Z,95066.63
2023-04-05T15:50:43.550Z,95052.91
2023-04-05T15:53:10.561Z,95058.16
2023-04-05T15:55:37.674Z,95061.97
2023-04-05T15:58:04.629Z,95058.94
2023-04-05T16:00:33.150Z,95065.78
2023-04-05T16:03:00.940Z,95059.16
2023-04-05T16:05:28.296Z,95050.00
2023-04-05T16:07:55.685Z,95055.28
2023-04-05T16:10:22.911Z,95055.56
2023-04-05T16:12:49.952Z,95064.47
2023-04-05T16:15:17.025Z,95070.53
2023-04-05T16:17:44.870Z,95069.91
2023-04-05T16:20:12.294Z,95050.47
2023-04-05T16:22:39.160Z,95053.31
2023-04-05T16:25:06.570Z,95039.44
2023-04-05T16:27:34.374Z,95039.25
2023-04-05T16:30:01.337Z,95030.03
2023-04-05T16:32:28.539Z,95035.06
2023-04-05T16:34:55.579Z,95047.06
2023-04-05T16:37:22.473Z,95052.88
2023-04-05T16:39:50.017Z,95038.00
2023-04-05T16:42:16.902Z,95029.00
2023-04-05T16:44:43.864Z,95025.38
2023-04-05T16:47:11.060Z,95035.53
2023-04-05T16:49:38.105Z,95040.75
2023-04-05T16:52:04.997Z,95033.97
2023-04-05T16:54:32.279Z,95041.28
2023-04-05T16:56:59.404Z,95043.34
2023-04-05T16:59:26.310Z,95039.59
2023-04-05T17:01:53.541Z,95037.50
2023-04-05T17:04:20.405Z,95035.91
2023-04-05T17:06:47.268Z,95028.75
2023-04-05T17:09:14.138Z,95027.03
2023-04-05T17:11:41.101Z,95024.47
2023-04-05T17:14:08.226Z,95026.69
2023-04-05T17:16:35.303Z,95028.47
2023-04-05T17:19:02.375Z,95028.94
2023-04-05T17:21:29.971Z,95031.63
2023-04-05T17:23:56.798Z,95033.41
2023-04-05T17:26:24.100Z,95021.28
2023-04-05T17:28:50.952Z,94999.47
2023-04-05T17:31:19.950Z,95012.97
2023-04-05T17:33:48.997Z,95016.28
2023-04-05T17:36:16.851Z,95018.03
2023-04-05T17:38:44.662Z,95010.56
2023-04-05T17:41:11.952Z,95001.25
2023-04-05T17:43:38.980Z,95007.44
2023-04-05T17:46:05.929Z,94995.00
2023-04-05T17:48:33.060Z,94973.16
2023-04-05T17:51:06.320Z,94972.66
2023-04-05T17:53:34.211Z,94978.78
2023-04-05T17:56:01.809Z,94976.44
2023-04-05T17:58:32.557Z,94974.56
2023-04-05T18:01:00.288Z,94964.19
2023-04-05T18:03:27.966Z,94959.28
2023-04-05T18:05:55.835Z,94969.41
2023-04-05T18:08:23.973Z,94960.56
2023-04-05T18:10:56.772Z,94957.97
2023-04-05T18:13:24.214Z,94951.00
2023-04-05T18:15:55.299Z,94951.41
2023-04-05T18:18:22.772Z,94961.56
2023-04-05T18:20:51.702Z,94972.03
2023-04-05T18:23:19.407Z,94958.38
2023-04-05T18:25:46.378Z,94963.66
2023-04-05T18:28:22.373Z,94967.03
2023-04-05T18:30:51.336Z,94959.28
2023-04-05T18:33:19.287Z,94963.31
2023-04-05T18:35:52.629Z,94977.13
2023-04-05T18:38:21.932Z,94991.97
2023-04-05T18:40:49.850Z,94998.31
2023-04-05T18:43:17.066Z,94978.22
2023-04-05T18:45:44.120Z,94981.53
2023-04-05T18:48:11.522Z,94978.41
2023-04-05T18:50:38.468Z,94973.81
2023-04-05T18:53:07.001Z,94970.81
2023-04-05T18:55:34.509Z,94972.50
2023-04-05T18:58:02.760Z,94979.56
2023-04-05T19:00:29.887Z,94983.88
2023-04-05T19:02:57.250Z,94971.09
2023-04-05T19:05:24.520Z,94990.44
2023-04-05T19:07:51.401Z,95007.47
2023-04-05T19:10:18.260Z,94994.72
2023-04-05T19:12:45.410Z,94991.34
2023-04-05T19:15:12.325Z,94994.34
2023-04-05T19:17:39.404Z,95002.94
2023-04-05T19:20:07.066Z,95002.41
2023-04-05T19:22:34.055Z,95001.34
2023-04-05T19:25:03.682Z,95004.88
2023-04-05T19:27:35.799Z,95003.19
2023-04-05T19:30:06.644Z,94990.78
2023-04-05T19:32:33.623Z,95006.44
2023-04-05T19:35:01.089Z,94999.34
2023-04-05T19:37:29.486Z,94999.81
2023-04-05T19:39:56.407Z,95012.97
2023-04-05T19:42:23.502Z,95007.34
2023-04-05T19:44:55.452Z,94987.47
2023-04-05T19:47:22.301Z,94968.50
2023-04-05T19:49:52.511Z,94991.16
2023-04-05T19:52:48.299Z,94979.44
2023-04-05T19:55:37.659Z,94979.84
2023-04-05T19:58:09.174Z,94997.50
2023-04-05T20:00:52.148Z,95003.06
2023-04-05T20:03:31.159Z,95000.16
2023-04-05T20:06:12.197Z,94965.47
2023-04-05T20:08:44.425Z,94993.19
2023-04-05T20:11:12.557Z,94979.06
2023-04-05T20:13:45.440Z,94949.75
2023-04-05T20:16:13.540Z,94950.81
2023-04-05T20:18:44.900Z,94985.47
2023-04-05T20:21:12.285Z,94978.84
2023-04-05T20:23:41.075Z,94997.78
2023-04-05T20:26:08.112Z,94989.97
2023-04-05T20:28:41.597Z,94955.94
2023-04-05T20:31:20.903Z,94923.94
2023-04-05T20:33:52.086Z,94925.06
2023-04-05T20:36:22.221Z,94961.22
2023-04-05T20:38:50.767Z,94979.22
2023-04-05T20:41:19.432Z,94984.78
2023-04-05T20:43:47.285Z,94987.38
2023-04-05T20:46:16.073Z,94969.84
2023-04-05T20:48:43.884Z,94955.88
2023-04-05T20:51:14.128Z,94940.47
2023-04-05T20:53:41.360Z,94960.25
2023-04-05T20:56:09.566Z,94960.88
2023-04-05T20:58:38.433Z,94971.56
2023-04-05T21:01:07.640Z,94955.75
2023-04-05T21:03:37.122Z,94973.59
2023-04-05T21:06:05.803Z,94944.06
2023-04-05T21:08:32.908Z,94959.97
2023-04-05T21:11:00.158Z,94971.19
2023-04-05T21:13:27.029Z,94964.25
2023-04-05T21:15:57.963Z,94956.38
2023-04-05T21:18:25.746Z,94940.06
2023-04-05T21:20:54.016Z,94948.09
2023-04-05T21:23:28.432Z,94955.88
2023-04-05T21:25:56.399Z,94964.03
2023-04-05T21:28:24.426Z,94967.66
2023-04-05T21:30:52.505Z,94959.59
2023-04-05T21:33:20.142Z,94969.09
2023-04-05T21:35:47.323Z,94975.91
2023-04-05T21:38:15.852Z,94951.31
2023-04-05T21:40:44.745Z,94929.75
2023-04-05T21:43:13.292Z,94947.09
2023-04-05T21:45:40.372Z,94961.47
2023-04-05T21:48:08.019Z,94968.31
2023-04-05T21:50:35.558Z,94960.44
2023-04-05T21:53:03.117Z,94972.84
2023-04-05T21:55:30.165Z,94967.16
2023-04-05T21:57:57.050Z,94954.28
2023-04-05T22:00:24.043Z,94932.03
2023-04-05T22:02:51.778Z,94936.44
2023-04-05T22:05:33.933Z,94945.25
2023-04-05T22:08:03.725Z,94960.28
2023-04-05T22:10:30.694Z,94944.78
2023-04-05T22:12:57.559Z,94955.88
2023-04-05T22:15:24.448Z,94964.34
2023-04-05T22:17:52.111Z,94971.97
2023-04-05T22:20:19.020Z,94952.84
2023-04-05T22:22:45.844Z,94956.22
2023-04-05T22:25:12.758Z,94957.69
2023-04-05T22:27:39.648Z,94955.16
2023-04-05T22:30:08.483Z,94943.16
2023-04-05T22:32:35.985Z,94958.25
2023-04-05T22:35:04.697Z,94963.44
2023-04-05T22:37:35.954Z,94963.19
2023-04-05T22:40:04.674Z,94974.63
2023-04-05T22:42:32.026Z,94936.66
2023-04-05T22:44:58.923Z,94914.56
2023-04-05T22:47:26.438Z,94935.91
2023-04-05T22:49:53.763Z,94942.41
2023-04-05T22:52:21.406Z,94950.94
2023-04-05T22:54:48.583Z,94941.25
2023-04-05T22:57:15.887Z,94922.66
2023-04-05T22:59:43.106Z,94900.59
2023-04-05T23:02:12.409Z,94915.53
2023-04-05T23:04:39.581Z,94920.22
2023-04-05T23:07:07.348Z,94929.94
2023-04-05T23:09:34.265Z,94894.97
2023-04-05T23:12:01.626Z,94903.34
2023-04-05T23:14:28.469Z,94945.94
2023-04-05T23:16:55.606Z,94950.34
2023-04-05T23:19:23.469Z,94946.19
2023-04-05T23:21:50.358Z,94940.50
2023-04-05T23:24:17.367Z,94941.44
2023-04-05T23:26:44.204Z,94952.56
2023-04-05T23:29:11.261Z,94919.47
2023-04-05T23:31:39.364Z,94887.72
2023-04-05T23:34:06.365Z,94919.66
2023-04-05T23:36:34.209Z,94909.81
2023-04-05T23:39:01.377Z,94902.00
2023-04-05T23:41:28.413Z,94883.97
2023-04-05T23:43:55.532Z,94897.16
2023-04-05T23:46:23.764Z,94884.97
2023-04-05T23:48:50.666Z,94892.38
2023-04-05T23:51:17.728Z,94873.78
2023-04-05T23:53:44.568Z,94874.50
2023-04-05T23:56:11.485Z,94878.38
2023-04-05T23:58:42.254Z,94900.28
